Time;durP1;ratioP1;P1;durP2;ratioP2;P2;SDS_P1;SDS_P2;PMS_P1;PMS_P2;Temp;Humidity;BMP_temperature;BMP_pressure;BME280_temperature;BME280_humidity;BME280_pressure;Samples;Min_cycle;Max_cycle;Signal;HPM_P1;HPM_P2
2022/11/14 00:01:06;;;;;;;12.20;10.70;;;;;;;;;;5001180;28;20426;-71
2022/11/14 00:03:32;;;;;;;10.20;9.20;;;;;;;;;;5006999;28;20435;-72
2022/11/14 00:05:58;;;;;;;9.97;9.07;;;;;;;;;;4999883;28;20813;-71
2022/11/14 00:08:24;;;;;;;9.70;8.60;;;;;;;;;;5005239;28;20541;-71
2022/11/14 00:10:51;;;;;;;9.27;8.57;;;;;;;;;;5010980;28;20447;-71
2022/11/14 00:13:18;;;;;;;8.60;8.00;;;;;;;;;;5005092;28;20496;-71
2022/11/14 00:15:44;;;;;;;9.70;8.83;;;;;;;;;;4979665;28;20431;-71
2022/11/14 00:18:10;;;;;;;10.17;9.30;;;;;;;;;;4995525;28;20501;-72
2022/11/14 00:20:36;;;;;;;8.87;8.10;;;;;;;;;;4988093;28;20423;-73
2022/11/14 00:23:02;;;;;;;10.57;9.63;;;;;;;;;;5011138;28;20522;-71
2022/11/14 00:25:28;;;;;;;8.90;8.20;;;;;;;;;;5010861;28;20519;-71
2022/11/14 00:27:57;;;;;;;8.70;8.03;;;;;;;;;;5004553;28;20546;-71
2022/11/14 00:30:23;;;;;;;9.13;8.40;;;;;;;;;;5006003;28;20427;-71
2022/11/14 00:32:49;;;;;;;8.73;8.03;;;;;;;;;;4984447;28;20458;-71
2022/11/14 00:35:15;;;;;;;9.20;8.40;;;;;;;;;;5005844;28;20780;-71
2022/11/14 00:37:42;;;;;;;9.43;8.70;;;;;;;;;;5007164;28;20438;-71
2022/11/14 00:40:08;;;;;;;8.70;7.95;;;;;;;;;;5001797;28;20907;-70
2022/11/14 00:42:34;;;;;;;8.90;8.10;;;;;;;;;;5003135;28;20219;-73
2022/11/14 00:45:00;;;;;;;9.77;8.97;;;;;;;;;;4997719;28;20448;-72
2022/11/14 00:47:26;;;;;;;8.57;7.83;;;;;;;;;;4994187;28;20957;-71
2022/11/14 00:49:52;;;;;;;9.20;8.30;;;;;;;;;;4991336;28;20907;-71
2022/11/14 00:52:18;;;;;;;10.27;9.43;;;;;;;;;;4993700;28;20418;-71
2022/11/14 00:54:44;;;;;;;10.20;9.30;;;;;;;;;;4979512;28;20422;-72
2022/11/14 00:57:10;;;;;;;11.40;9.20;;;;;;;;;;5008672;28;20469;-70
2022/11/14 00:59:36;;;;;;;10.50;9.60;;;;;;;;;;5005509;28;20876;-71
2022/11/14 01:02:02;;;;;;;10.10;9.10;;;;;;;;;;5008785;28;20749;-71
2022/11/14 01:04:28;;;;;;;11.43;10.30;;;;;;;;;;5004964;28;20443;-73
2022/11/14 01:06:54;;;;;;;11.07;9.97;;;;;;;;;;4990737;28;20504;-70
2022/11/14 01:09:20;;;;;;;10.10;9.20;;;;;;;;;;5005229;28;20425;-72
2022/11/14 01:11:46;;;;;;;10.20;9.13;;;;;;;;;;5007954;28;20869;-72
2022/11/14 01:14:12;;;;;;;10.40;9.40;;;;;;;;;;5004658;28;20459;-71
2022/11/14 01:16:38;;;;;;;10.57;9.67;;;;;;;;;;5008561;28;20521;-71
2022/11/14 01:19:04;;;;;;;10.07;9.00;;;;;;;;;;5001592;28;20456;-72
2022/11/14 01:21:30;;;;;;;10.60;9.47;;;;;;;;;;4992957;28;20396;-71
2022/11/14 01:23:56;;;;;;;11.67;10.17;;;;;;;;;;4994114;28;20435;-71
2022/11/14 01:26:22;;;;;;;11.00;10.00;;;;;;;;;;4973090;28;20827;-71
2022/11/14 01:28:48;;;;;;;10.53;9.53;;;;;;;;;;5007204;28;21255;-71
2022/11/14 01:31:16;;;;;;;10.37;9.30;;;;;;;;;;4964006;28;20453;-72
2022/11/14 01:33:41;;;;;;;9.73;8.93;;;;;;;;;;4980215;28;20408;-73
2022/11/14 01:36:08;;;;;;;11.27;10.07;;;;;;;;;;4986856;28;20868;-72
2022/11/14 01:38:34;;;;;;;9.07;8.27;;;;;;;;;;4985805;28;20496;-71
2022/11/14 01:41:01;;;;;;;11.20;10.10;;;;;;;;;;4970101;28;20438;-71
2022/11/14 01:43:28;;;;;;;9.30;8.60;;;;;;;;;;4989096;28;20433;-71
2022/11/14 01:45:59;;;;;;;9.70;8.80;;;;;;;;;;4996865;28;20439;-71
2022/11/14 01:48:31;;;;;;;8.93;8.13;;;;;;;;;;4999462;28;20487;-72
2022/11/14 01:51:24;;;;;;;10.63;9.70;;;;;;;;;;4992326;28;20403;-71
2022/11/14 01:53:53;;;;;;;10.93;9.80;;;;;;;;;;4981452;28;20411;-71
2022/11/14 01:56:22;;;;;;;12.90;9.53;;;;;;;;;;5004336;28;20518;-72
2022/11/14 01:59:14;;;;;;;11.68;10.18;;;;;;;;;;4988337;28;20479;-71
2022/11/14 02:01:50;;;;;;;11.07;10.00;;;;;;;;;;4989072;28;20299;-72
2022/11/14 02:04:31;;;;;;;11.37;10.27;;;;;;;;;;4975187;28;20550;-72
2022/11/14 02:06:59;;;;;;;11.10;9.90;;;;;;;;;;4987769;28;20533;-72
2022/11/14 02:09:25;;;;;;;15.77;10.05;;;;;;;;;;4997479;28;20454;-72
2022/11/14 02:11:52;;;;;;;10.43;9.50;;;;;;;;;;4979547;28;20197;-72
2022/11/14 02:14:18;;;;;;;9.90;9.03;;;;;;;;;;4998550;28;20551;-72
2022/11/14 02:16:45;;;;;;;10.37;9.43;;;;;;;;;;4998636;28;20539;-72
2022/11/14 02:19:13;;;;;;;9.80;8.93;;;;;;;;;;4995056;28;20503;-72
2022/11/14 02:21:39;;;;;;;11.32;9.45;;;;;;;;;;4988109;28;20440;-72
2022/11/14 02:24:09;;;;;;;11.17;10.20;;;;;;;;;;5006914;28;20683;-72
2022/11/14 02:26:35;;;;;;;11.07;9.97;;;;;;;;;;4994850;28;20970;-72
2022/11/14 02:29:01;;;;;;;12.73;10.17;;;;;;;;;;4996243;28;20758;-72
2022/11/14 02:31:27;;;;;;;10.47;9.37;;;;;;;;;;4991741;28;20775;-72
2022/11/14 02:33:52;;;;;;;13.77;9.30;;;;;;;;;;4975594;28;20482;-72
2022/11/14 02:36:18;;;;;;;9.37;7.83;;;;;;;;;;5002982;28;20418;-72
2022/11/14 02:38:44;;;;;;;10.60;9.67;;;;;;;;;;5001286;28;20499;-72
2022/11/14 02:41:10;;;;;;;10.50;9.63;;;;;;;;;;5016518;28;20413;-72
2022/11/14 02:43:39;;;;;;;9.73;8.93;;;;;;;;;;5016810;28;20528;-72
2022/11/14 02:46:05;;;;;;;10.13;9.23;;;;;;;;;;4992967;28;20516;-71
2022/11/14 02:48:31;;;;;;;11.07;10.07;;;;;;;;;;5022919;28;20488;-71
2022/11/14 02:50:57;;;;;;;11.53;9.77;;;;;;;;;;4994428;28;20426;-72
2022/11/14 02:53:23;;;;;;;10.50;9.50;;;;;;;;;;5007957;28;20820;-72
2022/11/14 02:55:49;;;;;;;11.17;10.07;;;;;;;;;;5013964;28;20488;-72
2022/11/14 02:58:15;;;;;;;13.20;10.80;;;;;;;;;;5013277;28;20456;-71
2022/11/14 03:00:41;;;;;;;11.27;9.67;;;;;;;;;;5005847;28;20803;-72
2022/11/14 03:03:07;;;;;;;11.73;10.60;;;;;;;;;;4994749;28;20727;-71
2022/11/14 03:05:33;;;;;;;11.37;10.23;;;;;;;;;;5013001;28;20412;-71
2022/11/14 03:07:59;;;;;;;11.00;10.00;;;;;;;;;;5001924;28;20471;-71
2022/11/14 03:10:25;;;;;;;10.97;10.07;;;;;;;;;;4995364;28;20414;-72
2022/11/14 03:12:55;;;;;;;11.02;9.68;;;;;;;;;;4994466;28;20412;-72
2022/11/14 03:15:21;;;;;;;11.50;9.70;;;;;;;;;;5008252;28;20243;-72
2022/11/14 03:17:47;;;;;;;11.17;10.27;;;;;;;;;;5016047;28;20406;-72
2022/11/14 03:20:13;;;;;;;12.13;10.93;;;;;;;;;;5013171;28;20488;-71
2022/11/14 03:22:39;;;;;;;9.60;8.73;;;;;;;;;;5010023;28;20485;-71
2022/11/14 03:25:05;;;;;;;10.17;9.20;;;;;;;;;;5018672;28;20410;-70
2022/11/14 03:27:31;;;;;;;10.87;9.77;;;;;;;;;;4998300;28;20798;-72
2022/11/14 03:29:57;;;;;;;10.43;9.43;;;;;;;;;;4996013;28;20423;-72
2022/11/14 03:32:23;;;;;;;11.05;10.00;;;;;;;;;;4994956;28;20406;-72
2022/11/14 03:34:49;;;;;;;13.33;9.90;;;;;;;;;;5014742;28;20191;-71
2022/11/14 03:37:15;;;;;;;10.20;9.20;;;;;;;;;;5001998;28;20406;-73
2022/11/14 03:39:41;;;;;;;10.43;9.53;;;;;;;;;;4975460;28;20466;-72
2022/11/14 03:42:08;;;;;;;11.00;10.20;;;;;;;;;;5015586;28;20414;-72
2022/11/14 03:44:34;;;;;;;10.13;9.30;;;;;;;;;;5013919;28;20466;-72
2022/11/14 03:47:00;;;;;;;9.67;8.90;;;;;;;;;;5004966;28;20914;-72
2022/11/14 03:49:26;;;;;;;9.17;8.47;;;;;;;;;;5015235;28;20406;-72
2022/11/14 03:51:52;;;;;;;10.10;9.10;;;;;;;;;;5014446;28;20771;-72
2022/11/14 03:54:18;;;;;;;10.10;8.93;;;;;;;;;;5000346;28;20204;-72
2022/11/14 03:56:44;;;;;;;10.87;9.80;;;;;;;;;;5005392;28;20425;-72
2022/11/14 03:59:10;;;;;;;9.90;9.07;;;;;;;;;;5006623;28;20481;-72
2022/11/14 04:01:39;;;;;;;10.00;9.07;;;;;;;;;;5015255;28;20977;-72
2022/11/14 04:04:05;;;;;;;9.47;8.60;;;;;;;;;;5013684;28;20410;-72
2022/11/14 04:06:31;;;;;;;9.70;8.83;;;;;;;;;;5007313;28;20532;-73
2022/11/14 04:08:57;;;;;;;10.23;9.43;;;;;;;;;;5008222;28;20467;-72
2022/11/14 04:11:23;;;;;;;10.83;9.23;;;;;;;;;;5006999;28;20413;-71
2022/11/14 04:13:49;;;;;;;10.17;9.20;;;;;;;;;;4997196;28;20435;-72
2022/11/14 04:16:15;;;;;;;9.57;8.77;;;;;;;;;;5011226;28;20454;-72
2022/11/14 04:18:41;;;;;;;8.43;7.63;;;;;;;;;;5012699;28;20801;-72
2022/11/14 04:21:07;;;;;;;9.70;8.90;;;;;;;;;;5002946;28;20448;-72
2022/11/14 04:23:33;;;;;;;10.10;8.40;;;;;;;;;;4992821;28;20568;-72
2022/11/14 04:26:01;;;;;;;10.45;9.50;;;;;;;;;;5005031;28;20976;-72
2022/11/14 04:28:27;;;;;;;9.63;8.80;;;;;;;;;;4992636;28;20307;-71
2022/11/14 04:30:53;;;;;;;10.13;9.20;;;;;;;;;;5014693;28;20219;-71
2022/11/14 04:33:19;;;;;;;13.00;10.03;;;;;;;;;;5011569;28;20412;-72
2022/11/14 04:35:45;;;;;;;12.27;9.40;;;;;;;;;;5011740;28;20776;-72
2022/11/14 04:38:11;;;;;;;9.70;8.80;;;;;;;;;;5008903;28;20452;-72
2022/11/14 04:40:37;;;;;;;12.17;10.00;;;;;;;;;;5005775;28;20936;-72
2022/11/14 04:43:03;;;;;;;10.23;9.17;;;;;;;;;;4998536;28;20386;-71
2022/11/14 04:45:29;;;;;;;11.60;9.87;;;;;;;;;;4989484;28;20424;-71
2022/11/14 04:47:55;;;;;;;10.40;9.33;;;;;;;;;;5008697;28;20455;-71
2022/11/14 04:50:21;;;;;;;10.27;9.47;;;;;;;;;;4997711;28;21060;-72
2022/11/14 04:52:50;;;;;;;11.33;9.37;;;;;;;;;;4987490;28;20405;-70
2022/11/14 04:55:17;;;;;;;10.70;9.70;;;;;;;;;;5005775;28;20482;-71
2022/11/14 04:57:43;;;;;;;9.38;8.60;;;;;;;;;;5009305;28;20392;-71
2022/11/14 05:00:09;;;;;;;10.63;9.27;;;;;;;;;;5021768;28;20190;-71
2022/11/14 05:02:35;;;;;;;11.27;10.07;;;;;;;;;;4991533;28;20412;-71
2022/11/14 05:05:01;;;;;;;9.80;8.10;;;;;;;;;;5022666;28;20432;-71
2022/11/14 05:07:27;;;;;;;12.10;10.65;;;;;;;;;;4993747;28;20217;-72
2022/11/14 05:09:53;;;;;;;11.83;10.57;;;;;;;;;;4993944;28;20246;-72
2022/11/14 05:12:19;;;;;;;10.00;9.10;;;;;;;;;;5016431;28;20427;-72
2022/11/14 05:14:45;;;;;;;11.03;9.90;;;;;;;;;;4997836;28;20385;-72
2022/11/14 05:17:11;;;;;;;12.80;11.07;;;;;;;;;;5018352;28;20402;-72
2022/11/14 05:19:37;;;;;;;10.18;9.27;;;;;;;;;;4993879;28;20407;-73
2022/11/14 05:22:03;;;;;;;10.37;9.50;;;;;;;;;;5010034;28;20196;-80
2022/11/14 05:24:29;;;;;;;10.83;9.83;;;;;;;;;;4980827;28;20381;-77
2022/11/14 05:26:55;;;;;;;9.23;7.80;;;;;;;;;;4999451;28;20429;-73
2022/11/14 05:29:21;;;;;;;11.40;10.27;;;;;;;;;;4999062;28;20931;-72
2022/11/14 05:31:47;;;;;;;10.60;9.60;;;;;;;;;;5000757;28;21085;-72
2022/11/14 05:34:13;;;;;;;10.20;9.27;;;;;;;;;;5002297;28;20935;-72
2022/11/14 05:36:39;;;;;;;12.50;11.13;;;;;;;;;;5004471;28;20423;-73
2022/11/14 05:39:05;;;;;;;11.90;10.70;;;;;;;;;;5007760;28;20449;-72
2022/11/14 05:41:31;;;;;;;19.70;10.70;;;;;;;;;;5006562;28;20414;-72
2022/11/14 05:43:57;;;;;;;12.40;11.10;;;;;;;;;;4994537;28;20699;-72
2022/11/14 05:46:23;;;;;;;19.33;13.90;;;;;;;;;;5020625;28;20424;-72
2022/11/14 05:48:49;;;;;;;17.30;13.60;;;;;;;;;;5000953;28;20442;-72
2022/11/14 05:51:15;;;;;;;17.07;14.50;;;;;;;;;;5017602;28;20420;-72
2022/11/14 05:53:41;;;;;;;18.17;13.83;;;;;;;;;;5014981;28;20470;-72
2022/11/14 05:56:09;;;;;;;19.17;13.93;;;;;;;;;;5015944;28;20773;-72
2022/11/14 05:58:35;;;;;;;12.13;10.73;;;;;;;;;;5002731;28;20786;-72
2022/11/14 06:01:05;;;;;;;17.97;12.43;;;;;;;;;;5016952;28;20539;-72
2022/11/14 06:03:35;;;;;;;16.05;11.75;;;;;;;;;;4997513;28;20785;-72
2022/11/14 06:06:02;;;;;;;12.43;11.03;;;;;;;;;;5022600;28;20194;-72
2022/11/14 06:08:28;;;;;;;14.47;12.47;;;;;;;;;;4993868;28;20647;-72
2022/11/14 06:10:54;;;;;;;14.43;12.55;;;;;;;;;;5021400;28;20782;-73
2022/11/14 06:13:23;;;;;;;16.00;11.53;;;;;;;;;;4997460;28;20713;-72
2022/11/14 06:15:49;;;;;;;13.00;11.80;;;;;;;;;;5003885;28;20445;-71
2022/11/14 06:18:15;;;;;;;15.23;13.13;;;;;;;;;;4993989;28;20755;-72
2022/11/14 06:20:41;;;;;;;13.37;11.53;;;;;;;;;;5006695;28;20515;-72
2022/11/14 06:23:07;;;;;;;13.40;12.07;;;;;;;;;;5011962;28;20411;-72
2022/11/14 06:25:33;;;;;;;13.73;12.17;;;;;;;;;;5016044;28;20928;-72
2022/11/14 06:27:59;;;;;;;10.80;9.85;;;;;;;;;;5009375;28;20477;-73
2022/11/14 06:30:25;;;;;;;12.20;10.87;;;;;;;;;;4995285;28;20234;-72
2022/11/14 06:32:56;;;;;;;12.40;11.20;;;;;;;;;;5012940;28;20472;-73
2022/11/14 06:35:22;;;;;;;11.40;10.33;;;;;;;;;;5015492;28;20481;-73
2022/11/14 06:37:48;;;;;;;11.67;10.47;;;;;;;;;;5010424;28;20467;-73
2022/11/14 06:40:17;;;;;;;13.48;10.35;;;;;;;;;;5007649;28;20427;-72
2022/11/14 06:42:43;;;;;;;12.25;11.00;;;;;;;;;;5025702;28;20222;-73
2022/11/14 06:45:09;;;;;;;11.60;10.43;;;;;;;;;;4981419;28;20185;-73
2022/11/14 06:47:38;;;;;;;10.43;9.43;;;;;;;;;;5006145;28;20494;-72
2022/11/14 06:50:07;;;;;;;11.23;10.07;;;;;;;;;;5004127;28;20422;-71
2022/11/14 06:52:33;;;;;;;12.67;11.47;;;;;;;;;;4977014;28;20204;-72
2022/11/14 06:54:59;;;;;;;12.40;10.43;;;;;;;;;;4999505;28;20618;-71
2022/11/14 06:57:25;;;;;;;14.02;10.55;;;;;;;;;;4652312;28;10000881;-72
2022/11/14 06:59:54;;;;;;;11.93;10.00;;;;;;;;;;4981194;28;20200;-73
2022/11/14 07:02:20;;;;;;;11.47;9.50;;;;;;;;;;4999345;28;20432;-73
2022/11/14 07:04:46;;;;;;;16.90;9.80;;;;;;;;;;4990909;28;20789;-72
2022/11/14 07:07:12;;;;;;;9.97;8.97;;;;;;;;;;4995697;28;20861;-72
2022/11/14 07:09:38;;;;;;;9.90;8.97;;;;;;;;;;5002531;28;20426;-71
2022/11/14 07:12:04;;;;;;;11.67;10.23;;;;;;;;;;4994743;28;20846;-71
2022/11/14 07:14:30;;;;;;;11.77;10.60;;;;;;;;;;4995878;28;20447;-72
2022/11/14 07:16:57;;;;;;;11.90;10.27;;;;;;;;;;4978413;28;20430;-72
2022/11/14 07:19:23;;;;;;;12.53;10.50;;;;;;;;;;4996343;28;20426;-73
2022/11/14 07:21:49;;;;;;;11.03;9.97;;;;;;;;;;5000279;28;20440;-72
2022/11/14 07:24:15;;;;;;;10.30;8.63;;;;;;;;;;4999084;28;20440;-73
2022/11/14 07:26:41;;;;;;;12.03;10.93;;;;;;;;;;4996530;28;20449;-72
2022/11/14 07:29:07;;;;;;;9.90;8.37;;;;;;;;;;4993598;28;20928;-71
2022/11/14 07:31:33;;;;;;;11.27;9.87;;;;;;;;;;4995551;28;20504;-72
2022/11/14 07:33:59;;;;;;;10.48;9.57;;;;;;;;;;5001607;28;20517;-72
2022/11/14 07:36:25;;;;;;;11.50;10.30;;;;;;;;;;4995421;28;20189;-72
2022/11/14 07:38:51;;;;;;;11.50;10.30;;;;;;;;;;4998015;28;20471;-72
2022/11/14 07:41:17;;;;;;;13.27;10.97;;;;;;;;;;5004809;28;20435;-72
2022/11/14 07:43:43;;;;;;;10.20;9.27;;;;;;;;;;5015733;28;20412;-73
2022/11/14 07:46:13;;;;;;;11.07;9.47;;;;;;;;;;4991172;28;20515;-73
2022/11/14 07:48:40;;;;;;;12.27;9.70;;;;;;;;;;4986454;28;20756;-72
2022/11/14 07:51:07;;;;;;;11.80;10.00;;;;;;;;;;4996906;28;20410;-73
2022/11/14 07:53:33;;;;;;;10.83;9.77;;;;;;;;;;5000834;28;20268;-74
2022/11/14 07:56:04;;;;;;;11.07;9.10;;;;;;;;;;4996323;28;20496;-73
2022/11/14 07:58:30;;;;;;;12.03;10.90;;;;;;;;;;4991916;28;20437;-72
2022/11/14 08:00:59;;;;;;;11.20;10.20;;;;;;;;;;5003831;28;20429;-73
2022/11/14 08:03:25;;;;;;;9.57;8.77;;;;;;;;;;5012905;28;20808;-72
2022/11/14 08:05:51;;;;;;;10.45;9.50;;;;;;;;;;5007615;28;20433;-72
2022/11/14 08:08:17;;;;;;;10.30;9.40;;;;;;;;;;4997583;28;20224;-72
2022/11/14 08:10:43;;;;;;;11.70;9.57;;;;;;;;;;5007946;28;20850;-73
2022/11/14 08:13:10;;;;;;;10.00;9.00;;;;;;;;;;5000498;28;20491;-73
2022/11/14 08:15:36;;;;;;;10.80;9.70;;;;;;;;;;5010233;28;20872;-72
2022/11/14 08:18:02;;;;;;;10.90;9.80;;;;;;;;;;5005665;28;20436;-72
2022/11/14 08:20:28;;;;;;;11.30;10.13;;;;;;;;;;5001566;28;20462;-71
2022/11/14 08:22:54;;;;;;;10.10;8.87;;;;;;;;;;4979189;28;20208;-73
2022/11/14 08:25:20;;;;;;;12.03;9.07;;;;;;;;;;4999615;28;20538;-73
2022/11/14 08:27:46;;;;;;;9.40;8.60;;;;;;;;;;5005901;28;20469;-73
2022/11/14 08:30:12;;;;;;;10.27;9.37;;;;;;;;;;4995001;28;20823;-72
2022/11/14 08:32:38;;;;;;;11.50;10.50;;;;;;;;;;5004989;28;20423;-72
2022/11/14 08:35:05;;;;;;;11.50;10.50;;;;;;;;;;5003654;28;20436;-72
2022/11/14 08:37:31;;;;;;;12.03;10.10;;;;;;;;;;5005673;28;20964;-73
2022/11/14 08:39:57;;;;;;;11.90;10.40;;;;;;;;;;4996976;28;20503;-73
2022/11/14 08:42:23;;;;;;;9.67;8.87;;;;;;;;;;5014904;28;20910;-73
2022/11/14 08:44:49;;;;;;;10.10;9.30;;;;;;;;;;4989641;28;20828;-73
2022/11/14 08:47:15;;;;;;;10.73;9.70;;;;;;;;;;4997421;28;20460;-73
2022/11/14 08:49:41;;;;;;;11.27;10.20;;;;;;;;;;4999259;28;20510;-72
2022/11/14 08:52:07;;;;;;;10.77;9.80;;;;;;;;;;4998338;28;21167;-73
2022/11/14 08:54:33;;;;;;;17.23;11.30;;;;;;;;;;4997691;28;20432;-74
2022/11/14 08:56:59;;;;;;;10.37;9.33;;;;;;;;;;4979440;28;20466;-73
2022/11/14 08:59:25;;;;;;;10.80;9.90;;;;;;;;;;5000881;28;20442;-73
2022/11/14 09:01:51;;;;;;;12.47;11.23;;;;;;;;;;4998213;28;20503;-72
2022/11/14 09:04:17;;;;;;;11.63;9.87;;;;;;;;;;4996968;28;20722;-73
2022/11/14 09:06:45;;;;;;;12.60;11.10;;;;;;;;;;4995793;28;20939;-73
2022/11/14 09:09:11;;;;;;;14.43;11.10;;;;;;;;;;4999420;28;21004;-72
2022/11/14 09:11:37;;;;;;;13.43;12.07;;;;;;;;;;4997346;28;20400;-73
2022/11/14 09:14:03;;;;;;;11.67;10.57;;;;;;;;;;5000285;28;20946;-73
2022/11/14 09:16:29;;;;;;;12.30;11.10;;;;;;;;;;4998825;28;20622;-73
2022/11/14 09:18:55;;;;;;;13.13;11.83;;;;;;;;;;5000044;28;20491;-73
2022/11/14 09:21:21;;;;;;;14.77;11.70;;;;;;;;;;5001965;28;20565;-73
2022/11/14 09:23:47;;;;;;;15.90;13.93;;;;;;;;;;5010462;28;20490;-72
2022/11/14 09:26:13;;;;;;;14.83;12.90;;;;;;;;;;4999559;28;20895;-73
2022/11/14 09:28:40;;;;;;;24.60;13.53;;;;;;;;;;4993615;28;20731;-73
2022/11/14 09:31:07;;;;;;;16.30;14.10;;;;;;;;;;5008720;28;20862;-73
2022/11/14 09:33:34;;;;;;;15.63;13.50;;;;;;;;;;5007655;28;20499;-74
2022/11/14 09:36:01;;;;;;;18.57;14.67;;;;;;;;;;5006138;28;20922;-75
2022/11/14 09:38:27;;;;;;;16.17;14.43;;;;;;;;;;5006299;28;21001;-73
2022/11/14 09:41:12;;;;;;;16.70;14.97;;;;;;;;;;4992643;28;20444;-73
2022/11/14 09:43:52;;;;;;;18.63;15.60;;;;;;;;;;5008902;28;20466;-73
2022/11/14 09:46:37;;;;;;;19.80;14.73;;;;;;;;;;5007848;28;20404;-74
2022/11/14 09:49:03;;;;;;;17.27;14.87;;;;;;;;;;5013111;28;20508;-75
2022/11/14 09:51:33;;;;;;;17.93;16.00;;;;;;;;;;4998968;28;20519;-74
2022/11/14 09:54:05;;;;;;;17.60;13.17;;;;;;;;;;4998489;28;21090;-74
2022/11/14 09:56:31;;;;;;;19.17;13.33;;;;;;;;;;5001558;28;20773;-74
2022/11/14 09:58:57;;;;;;;17.67;14.63;;;;;;;;;;5009247;28;20470;-73
2022/11/14 10:01:32;;;;;;;14.50;12.90;;;;;;;;;;5007613;28;20483;-74
2022/11/14 10:04:04;;;;;;;17.60;14.17;;;;;;;;;;5008845;28;20443;-73
2022/11/14 10:06:35;;;;;;;16.50;11.53;;;;;;;;;;5000234;28;20420;-73
2022/11/14 10:09:01;;;;;;;16.60;13.80;;;;;;;;;;4997861;28;20467;-73
2022/11/14 10:11:35;;;;;;;14.13;12.30;;;;;;;;;;4651064;28;10000144;-74
2022/11/14 10:14:07;;;;;;;15.00;13.40;;;;;;;;;;4996158;28;20791;-73
2022/11/14 10:16:51;;;;;;;13.83;12.17;;;;;;;;;;5002300;28;20527;-72
2022/11/14 10:19:17;;;;;;;15.37;12.23;;;;;;;;;;4998393;28;20765;-72
2022/11/14 10:21:56;;;;;;;14.90;11.57;;;;;;;;;;4996476;28;20670;-72
2022/11/14 10:24:22;;;;;;;33.27;23.10;;;;;;;;;;4993141;28;21032;-72
2022/11/14 10:26:57;;;;;;;11.50;9.70;;;;;;;;;;4994032;28;20464;-72
2022/11/14 10:29:23;;;;;;;22.17;11.83;;;;;;;;;;5008298;28;20442;-71
2022/11/14 10:31:52;;;;;;;9.57;8.67;;;;;;;;;;4981131;28;21038;-71
2022/11/14 10:34:19;;;;;;;11.50;9.40;;;;;;;;;;4997298;28;20867;-72
2022/11/14 10:36:46;;;;;;;11.60;10.33;;;;;;;;;;4998615;28;20544;-73
2022/11/14 10:39:21;;;;;;;9.80;8.80;;;;;;;;;;4998439;28;20881;-73
2022/11/14 10:41:50;;;;;;;9.67;8.70;;;;;;;;;;4985000;28;20454;-74
2022/11/14 10:44:18;;;;;;;13.95;9.70;;;;;;;;;;4985151;28;20986;-72
2022/11/14 10:46:46;;;;;;;9.30;8.37;;;;;;;;;;4986465;28;20244;-73
2022/11/14 10:49:20;;;;;;;10.10;9.10;;;;;;;;;;5006425;28;20432;-72
2022/11/14 10:51:50;;;;;;;6.67;6.17;;;;;;;;;;4980353;28;20496;-71
2022/11/14 10:54:22;;;;;;;8.77;7.67;;;;;;;;;;4994846;28;20461;-72
2022/11/14 10:56:49;;;;;;;8.67;7.77;;;;;;;;;;4994319;28;20979;-71
2022/11/14 10:59:16;;;;;;;8.57;7.70;;;;;;;;;;5002544;28;20819;-72
2022/11/14 11:01:43;;;;;;;8.30;7.70;;;;;;;;;;4999974;28;20704;-73
2022/11/14 11:04:12;;;;;;;8.60;7.90;;;;;;;;;;5000790;28;20485;-72
2022/11/14 11:06:38;;;;;;;7.23;6.63;;;;;;;;;;4996598;28;20807;-73
2022/11/14 11:11:55;;;;;;;8.37;7.20;;;;;;;;;;4999955;28;20550;-72
2022/11/14 11:14:21;;;;;;;9.23;7.20;;;;;;;;;;4986368;28;20930;-72
2022/11/14 11:16:47;;;;;;;8.67;7.87;;;;;;;;;;4998966;28;20444;-72
2022/11/14 11:19:26;;;;;;;9.40;8.47;;;;;;;;;;5007251;28;20434;-71
2022/11/14 11:21:53;;;;;;;7.73;7.13;;;;;;;;;;5009046;28;20443;-74
2022/11/14 11:24:35;;;;;;;9.77;8.87;;;;;;;;;;4991889;28;20459;-72
2022/11/14 11:27:21;;;;;;;18.97;9.90;;;;;;;;;;4992201;28;20638;-73
2022/11/14 11:29:50;;;;;;;13.90;10.73;;;;;;;;;;4994804;28;20444;-72
2022/11/14 11:32:24;;;;;;;12.17;9.60;;;;;;;;;;4979629;28;20462;-72
2022/11/14 11:34:51;;;;;;;10.30;8.40;;;;;;;;;;4986127;28;20435;-72
2022/11/14 11:37:24;;;;;;;12.23;8.70;;;;;;;;;;4998469;28;20577;-72
2022/11/14 11:39:52;;;;;;;8.97;8.17;;;;;;;;;;4991683;28;20460;-73
2022/11/14 11:42:21;;;;;;;10.43;9.53;;;;;;;;;;5002439;28;20419;-72
2022/11/14 11:44:50;;;;;;;9.83;8.83;;;;;;;;;;4991272;28;20527;-73
2022/11/14 11:47:18;;;;;;;9.40;8.50;;;;;;;;;;4996272;28;20526;-73
2022/11/14 11:49:44;;;;;;;9.63;8.73;;;;;;;;;;4972238;28;20450;-71
2022/11/14 11:52:13;;;;;;;10.97;9.97;;;;;;;;;;5005004;28;20431;-73
2022/11/14 11:54:47;;;;;;;10.90;9.87;;;;;;;;;;5001853;28;20659;-73
2022/11/14 11:57:15;;;;;;;8.97;8.17;;;;;;;;;;4994961;28;20403;-72
2022/11/14 11:59:43;;;;;;;10.37;9.40;;;;;;;;;;4997548;28;20426;-72
2022/11/14 12:02:29;;;;;;;9.90;9.00;;;;;;;;;;5004535;28;20420;-74
2022/11/14 12:04:56;;;;;;;9.70;8.70;;;;;;;;;;4996895;28;20430;-72
2022/11/14 12:07:29;;;;;;;9.30;8.40;;;;;;;;;;4998378;28;20467;-71
2022/11/14 12:09:56;;;;;;;10.17;9.07;;;;;;;;;;4974031;28;20459;-73
2022/11/14 12:12:41;;;;;;;11.07;9.77;;;;;;;;;;4993752;28;20515;-73
2022/11/14 12:15:07;;;;;;;10.77;9.80;;;;;;;;;;5005961;28;20426;-73
2022/11/14 12:17:59;;;;;;;11.10;10.00;;;;;;;;;;4994454;28;20408;-73
2022/11/14 12:20:32;;;;;;;10.60;9.60;;;;;;;;;;5002407;28;20497;-75
2022/11/14 12:23:07;;;;;;;12.67;10.20;;;;;;;;;;4997572;28;20416;-73
2022/11/14 12:25:42;;;;;;;12.80;11.50;;;;;;;;;;5006798;28;20438;-74
2022/11/14 12:28:11;;;;;;;11.70;10.50;;;;;;;;;;4999236;28;20477;-73
2022/11/14 12:30:38;;;;;;;11.23;9.80;;;;;;;;;;5004814;28;20466;-73
2022/11/14 12:33:25;;;;;;;10.93;9.70;;;;;;;;;;4998504;28;20435;-72
2022/11/14 12:35:52;;;;;;;10.20;9.17;;;;;;;;;;4991597;28;20431;-71
2022/11/14 12:38:20;;;;;;;10.23;9.33;;;;;;;;;;5000727;28;20463;-72
2022/11/14 12:40:51;;;;;;;11.27;10.23;;;;;;;;;;4994708;28;20670;-72
2022/11/14 12:43:37;;;;;;;9.27;8.47;;;;;;;;;;4994213;28;20479;-72
2022/11/14 12:46:10;;;;;;;10.17;9.10;;;;;;;;;;4990512;28;20446;-73
2022/11/14 12:48:41;;;;;;;11.20;8.90;;;;;;;;;;4989688;28;20471;-74
2022/11/14 12:51:26;;;;;;;10.20;9.20;;;;;;;;;;4995078;28;20495;-73
2022/11/14 12:53:53;;;;;;;10.80;9.23;;;;;;;;;;5001282;28;20801;-73
2022/11/14 12:56:31;;;;;;;8.67;7.87;;;;;;;;;;5001642;28;20466;-72
2022/11/14 12:59:16;;;;;;;10.20;9.20;;;;;;;;;;5001217;28;20438;-74
2022/11/14 13:01:51;;;;;;;9.53;8.73;;;;;;;;;;4983941;28;20509;-75
2022/11/14 13:04:29;;;;;;;10.00;9.00;;;;;;;;;;5001520;28;20549;-71
2022/11/14 13:07:15;;;;;;;9.90;8.90;;;;;;;;;;4999742;28;20431;-72
2022/11/14 13:10:00;;;;;;;8.30;7.07;;;;;;;;;;4951707;28;20450;-74
2022/11/14 13:24:03;;;;;;;8.53;7.53;;;;;;;;;;5000990;28;20502;-72
2022/11/14 13:26:29;;;;;;;8.20;7.50;;;;;;;;;;4999872;28;20523;-73
2022/11/14 13:28:56;;;;;;;9.53;7.90;;;;;;;;;;4993739;28;20872;-72
2022/11/14 13:31:42;;;;;;;15.10;8.50;;;;;;;;;;5010635;28;20431;-73
2022/11/14 13:34:27;;;;;;;9.60;8.83;;;;;;;;;;5000229;28;20412;-73
2022/11/14 13:37:11;;;;;;;10.40;9.10;;;;;;;;;;5008169;28;20527;-71
2022/11/14 13:39:56;;;;;;;9.43;8.50;;;;;;;;;;4994785;28;20460;-73
2022/11/14 13:42:28;;;;;;;9.10;8.37;;;;;;;;;;5024895;28;20442;-72
2022/11/14 13:44:54;;;;;;;10.13;9.07;;;;;;;;;;4980029;28;20432;-73
2022/11/14 13:47:53;;;;;;;11.33;9.97;;;;;;;;;;4979204;28;20458;-73
2022/11/14 13:50:30;;;;;;;11.20;10.07;;;;;;;;;;4958441;28;20949;-73
2022/11/14 13:52:56;;;;;;;9.57;8.63;;;;;;;;;;5005652;28;20439;-73
2022/11/14 13:55:27;;;;;;;14.00;11.63;;;;;;;;;;5005819;28;20434;-74
2022/11/14 13:58:07;;;;;;;14.27;10.60;;;;;;;;;;5005017;28;20805;-73
2022/11/14 14:01:11;;;;;;;11.33;10.23;;;;;;;;;;5002078;28;20786;-74
2022/11/14 14:03:49;;;;;;;12.00;10.83;;;;;;;;;;4580129;29;10000644;-74
2022/11/14 14:06:27;;;;;;;11.53;10.40;;;;;;;;;;4941637;29;20198;-73
2022/11/14 14:08:53;;;;;;;11.63;10.43;;;;;;;;;;4979333;28;20487;-74
2022/11/14 14:11:28;;;;;;;13.13;10.83;;;;;;;;;;5006971;28;20787;-73
2022/11/14 14:14:02;;;;;;;17.77;14.67;;;;;;;;;;4989403;28;20519;-73
2022/11/14 14:16:52;;;;;;;15.20;9.97;;;;;;;;;;4998187;28;20435;-73
2022/11/14 14:19:22;;;;;;;14.30;11.47;;;;;;;;;;5000569;28;20404;-73
2022/11/14 14:22:01;;;;;;;12.93;11.73;;;;;;;;;;4999624;28;20434;-74
2022/11/14 14:24:30;;;;;;;12.53;11.37;;;;;;;;;;4987302;28;20516;-73
2022/11/14 14:27:02;;;;;;;13.63;11.10;;;;;;;;;;5017458;28;20770;-73
2022/11/14 14:29:44;;;;;;;16.20;11.93;;;;;;;;;;5009311;28;20503;-75
2022/11/14 14:32:17;;;;;;;14.23;11.80;;;;;;;;;;5007277;28;21021;-73
2022/11/14 14:34:46;;;;;;;15.60;12.10;;;;;;;;;;5008152;28;20407;-73
2022/11/14 14:37:17;;;;;;;11.50;10.30;;;;;;;;;;4985897;28;20440;-73
2022/11/14 14:39:55;;;;;;;13.03;11.30;;;;;;;;;;4997123;28;20548;-75
2022/11/14 14:42:21;;;;;;;14.13;11.63;;;;;;;;;;4998480;28;20555;-74
2022/11/14 14:44:47;;;;;;;11.53;10.30;;;;;;;;;;4973139;28;20432;-73
2022/11/14 14:47:32;;;;;;;13.63;11.50;;;;;;;;;;5004717;28;20608;-75
2022/11/14 14:50:00;;;;;;;12.93;10.90;;;;;;;;;;4990420;28;20423;-73
2022/11/14 14:52:29;;;;;;;15.03;11.10;;;;;;;;;;5001129;28;20511;-74